Weather History for KOWA - November, 2013

Change the Weather History Date:

Wednesday, November 27, 2013

  Actual Average Record
Temperature  
Mean Temperature 14 °F -  
Max Temperature 24 °F 33 °F 68 °F (1998)
Min Temperature 3 °F 18 °F -16 °F (2014)
Degree Days  
Heating Degree Days 52    
Moisture  
Dew Point 6 °F    
Average Humidity 68    
Maximum Humidity 85    
Minimum Humidity 43    
Precipitation  
Precipitation 0.00 in - - ()
Sea Level Pressure  
Sea Level Pressure 30.21 in    
Wind  
Wind Speed 4 mph (South)    
Max Wind Speed 14 mph    
Max Gust Speed 20 mph    
Visibility 10 miles    
Events      
Averages and records for this station are not official NWS values.
T = Trace of Precipitation, MM = Missing Value Source: NWS Daily Summary

Daily Weather History Graph

Daily Weather History Graph

Search for Another Location

Airport or City:

Trip Planner

Search our weather history database for the weather conditions in past years. The results will help you decide how hot, cold, wet, or windy it might be!

Date:

Astronomy

Nov. 27, 2013 Rise Set
Actual Time 7:23 AM CST 4:37 PM CST
Civil Twilight 6:51 AM CST 5:09 PM CST
Nautical Twilight 6:15 AM CST 5:45 PM CST
Astronomical Twilight 5:41 AM CST 6:20 PM CST
Moon 1:14 AM CST (11/27) 1:25 PM CST (11/27)
Length of Visible Light 10h 18m
Length of Day
9h 13m
Waning Crescent, 31% of the Moon is Illuminated
Nov 27
Waning Crescent
Dec 2
New
Dec 9
First Quarter
Dec 17
Full
Dec 25
Last Quarter

Hourly Weather History & Observations

Time (CST) Temp. Windchill Dew Point Humidity Pressure Visibility Wind Dir Wind Speed Gust Speed Precip Events Conditions
12:01 AM 8.6 °F - 3.2 °F 79% 30.33 in 10.0 mi NW 1.2 mph - N/A   Clear
12:21 AM 10.4 °F 4.0 °F 3.2 °F 73% 30.33 in 10.0 mi NW 3.5 mph - N/A   Clear
12:41 AM 8.6 °F - 3.2 °F 79% 30.32 in 10.0 mi NNW 2.3 mph - N/A   Clear
1:01 AM 8.6 °F 2.0 °F 3.2 °F 79% 30.33 in 10.0 mi NW 3.5 mph - N/A   Clear
1:21 AM 8.6 °F - 3.2 °F 79% 30.33 in 10.0 mi NNW 2.3 mph - N/A   Clear
1:41 AM 8.6 °F 2.0 °F 1.4 °F 73% 30.33 in 10.0 mi NW 3.5 mph - N/A   Clear
2:01 AM 8.6 °F 2.0 °F 1.4 °F 73% 30.34 in 10.0 mi NW 3.5 mph - N/A   Clear
2:21 AM 6.8 °F - 1.4 °F 79% 30.34 in 10.0 mi NW 2.3 mph - N/A   Clear
2:41 AM 6.8 °F -0.1 °F 1.4 °F 79% 30.34 in 10.0 mi NW 3.5 mph - N/A   Clear
3:01 AM 5.0 °F -2.1 °F 1.4 °F 85% 30.34 in 10.0 mi WNW 3.5 mph - N/A   Clear
3:21 AM 6.8 °F - 1.4 °F 79% 30.34 in 10.0 mi NNW 2.3 mph - N/A   Clear
3:41 AM 6.8 °F - 1.4 °F 79% 30.34 in 10.0 mi Calm Calm - N/A   Clear
4:01 AM 6.8 °F - 1.4 °F 79% 30.33 in 10.0 mi NNW 1.2 mph - N/A   Clear
4:21 AM 6.8 °F - 1.4 °F 79% 30.33 in 10.0 mi NW 2.3 mph - N/A   Clear
4:41 AM 6.8 °F - 1.4 °F 79% 30.32 in 10.0 mi Calm Calm - N/A   Clear
5:01 AM 5.0 °F - 1.4 °F 85% 30.33 in 10.0 mi WNW 1.2 mph - N/A   Clear
5:21 AM 6.8 °F - 1.4 °F 79% 30.33 in 10.0 mi NW 2.3 mph - N/A   Clear
5:41 AM 6.8 °F - 1.4 °F 79% 30.33 in 10.0 mi NW 1.2 mph - N/A   Clear
6:01 AM 5.0 °F - 1.4 °F 85% 30.34 in 10.0 mi West 2.3 mph - N/A   Clear
6:21 AM 3.2 °F - -0.4 °F 85% 30.33 in 10.0 mi West 1.2 mph - N/A   Clear
6:41 AM 3.2 °F - -0.4 °F 85% 30.34 in 10.0 mi Calm Calm - N/A   Clear
7:01 AM 3.2 °F - -0.4 °F 85% 30.34 in 10.0 mi Calm Calm - N/A   Clear
7:21 AM 5.0 °F - 1.4 °F 85% 30.33 in 10.0 mi WSW 1.2 mph - N/A   Clear
7:41 AM 3.2 °F - -0.4 °F 85% 30.33 in 10.0 mi WSW 2.3 mph - N/A   Clear
8:01 AM 5.0 °F - 1.4 °F 85% 30.33 in 10.0 mi West 2.3 mph - N/A   Clear
8:21 AM 6.8 °F - 3.2 °F 85% 30.33 in 10.0 mi SW 1.2 mph - N/A   Clear
8:41 AM 8.6 °F - 5.0 °F 85% 30.32 in 10.0 mi Calm Calm - N/A   Clear
9:01 AM 10.4 °F - 6.8 °F 85% 30.32 in 10.0 mi Calm Calm - N/A   Clear
9:21 AM 10.4 °F - 6.8 °F 85% 30.32 in 10.0 mi Calm Calm - N/A   Clear
9:41 AM 12.2 °F - 8.6 °F 85% 30.32 in 10.0 mi ENE 1.2 mph - N/A   Clear
10:01 AM 14.0 °F - 8.6 °F 79% 30.31 in 10.0 mi SE 2.3 mph - N/A   Clear
10:21 AM 15.8 °F - 8.6 °F 73% 30.30 in 10.0 mi Calm Calm - N/A   Clear
10:41 AM 17.6 °F - 8.6 °F 68% 30.30 in 10.0 mi SSE 1.2 mph - N/A   Clear
11:01 AM 17.6 °F 10.7 °F 6.8 °F 63% 30.29 in 10.0 mi South 4.6 mph - N/A   Clear
11:21 AM 19.4 °F 10.4 °F 8.6 °F 63% 30.27 in 10.0 mi South 6.9 mph - N/A   Clear
11:41 AM 19.4 °F 9.5 °F 6.8 °F 58% 30.26 in 10.0 mi South 8.1 mph - N/A   Clear
12:01 PM 21.2 °F 14.9 °F 6.8 °F 54% 30.25 in 10.0 mi SSE 4.6 mph - N/A   Clear
12:21 PM 21.2 °F 12.6 °F 8.6 °F 58% 30.22 in 10.0 mi South 6.9 mph - N/A   Clear
12:41 PM 21.2 °F 10.9 °F 6.8 °F 54% 30.21 in 10.0 mi SE 9.2 mph - N/A   Clear
1:01 PM 23.0 °F 14.7 °F 6.8 °F 50% 30.20 in 10.0 mi South 6.9 mph - N/A   Clear
1:21 PM 23.0 °F 14.7 °F 6.8 °F 50% 30.19 in 10.0 mi SSE 6.9 mph - N/A   Clear
1:41 PM 24.8 °F 15.3 °F 6.8 °F 46% 30.17 in 10.0 mi SSE 9.2 mph - N/A   Clear
2:01 PM 24.8 °F 16.1 °F 6.8 °F 46% 30.18 in 10.0 mi South 8.1 mph - N/A   Clear
2:21 PM 24.8 °F 16.9 °F 6.8 °F 46% 30.16 in 10.0 mi South 6.9 mph - N/A   Clear
2:41 PM 24.8 °F 16.1 °F 6.8 °F 46% 30.15 in 10.0 mi South 8.1 mph - N/A   Scattered Clouds
3:01 PM 24.8 °F 14.6 °F 6.8 °F 46% 30.14 in 10.0 mi South 10.4 mph - N/A   Mostly Cloudy
3:21 PM 24.8 °F 14.6 °F 5.0 °F 43% 30.14 in 10.0 mi South 10.4 mph - N/A   Mostly Cloudy
3:41 PM 24.8 °F 14.6 °F 6.8 °F 46% 30.13 in 10.0 mi South 10.4 mph 16.1 mph N/A   Scattered Clouds
4:01 PM 23.0 °F 10.6 °F 6.8 °F 50% 30.09 in 10.0 mi SSE 13.8 mph - N/A   Clear
4:21 PM 23.0 °F 12.4 °F 6.8 °F 50% 30.10 in 10.0 mi SSE 10.4 mph 16.1 mph N/A   Clear
4:41 PM 21.2 °F 9.5 °F 6.8 °F 54% 30.08 in 10.0 mi SSE 11.5 mph - N/A   Clear
5:01 PM 21.2 °F 10.1 °F 6.8 °F 54% 30.08 in 10.0 mi SSE 10.4 mph - N/A   Clear
5:21 PM 21.2 °F 10.9 °F 6.8 °F 54% 30.06 in 10.0 mi SE 9.2 mph - N/A   Scattered Clouds
5:41 PM 21.2 °F 10.9 °F 6.8 °F 54% 30.06 in 10.0 mi SE 9.2 mph - N/A   Clear
6:01 PM 21.2 °F 10.9 °F 6.8 °F 54% 30.06 in 10.0 mi SE 9.2 mph - N/A   Clear
6:21 PM 21.2 °F 9.5 °F 6.8 °F 54% 30.05 in 10.0 mi SE 11.5 mph - N/A   Clear
6:41 PM 21.2 °F 10.9 °F 8.6 °F 58% 30.07 in 10.0 mi SSE 9.2 mph 17.3 mph N/A   Scattered Clouds
7:01 PM 21.2 °F 9.5 °F 8.6 °F 58% 30.08 in 10.0 mi SSE 11.5 mph - N/A   Clear
7:21 PM 21.2 °F 8.3 °F 8.6 °F 58% 30.09 in 10.0 mi SSE 13.8 mph - N/A   Clear
7:41 PM 21.2 °F 8.9 °F 8.6 °F 58% 30.09 in 10.0 mi SSE 12.7 mph 16.1 mph N/A   Clear
8:01 PM 19.4 °F 7.2 °F 8.6 °F 63% 30.09 in 10.0 mi SSE 11.5 mph - N/A   Clear
8:21 PM 19.4 °F 7.9 °F 8.6 °F 63% 30.09 in 10.0 mi SSE 10.4 mph - N/A   Clear
8:41 PM 19.4 °F 6.6 °F 10.4 °F 68% 30.09 in 10.0 mi SSE 12.7 mph 17.3 mph N/A   Scattered Clouds
9:01 PM 19.4 °F 7.2 °F 10.4 °F 68% 30.08 in 10.0 mi SSE 11.5 mph 17.3 mph N/A   Mostly Cloudy
9:21 PM 19.4 °F 7.2 °F 10.4 °F 68% 30.07 in 10.0 mi SSE 11.5 mph 16.1 mph N/A   Overcast
9:41 PM 19.4 °F 6.6 °F 10.4 °F 68% 30.06 in 10.0 mi SSE 12.7 mph - N/A   Overcast
10:01 PM 19.4 °F 7.2 °F 10.4 °F 68% 30.06 in 10.0 mi SE 11.5 mph 19.6 mph N/A   Overcast
10:21 PM 19.4 °F 7.2 °F 10.4 °F 68% 30.05 in 10.0 mi SE 11.5 mph - N/A   Overcast
10:41 PM 19.4 °F 7.9 °F 10.4 °F 68% 30.05 in 10.0 mi SE 10.4 mph - N/A   Overcast
11:01 PM 19.4 °F 6.6 °F 10.4 °F 68% 30.05 in 10.0 mi SSE 12.7 mph - N/A   Overcast
11:21 PM 21.2 °F 10.9 °F 10.4 °F 63% 30.04 in 10.0 mi SE 9.2 mph - N/A   Overcast
11:41 PM 21.2 °F 9.5 °F 10.4 °F 63% 30.04 in 10.0 mi SE 11.5 mph 16.1 mph N/A   Overcast